createdAt,value
2022-10-23T00:00:37.468Z,16.00
2022-10-23T00:03:04.785Z,16.00
2022-10-23T00:05:31.594Z,15.80
2022-10-23T00:07:59.737Z,15.80
2022-10-23T00:10:27.957Z,15.90
2022-10-23T00:12:54.929Z,16.00
2022-10-23T00:15:22.440Z,15.60
2022-10-23T00:17:49.404Z,15.60
2022-10-23T00:20:17.484Z,15.20
2022-10-23T00:22:44.015Z,15.10
2022-10-23T00:25:11.302Z,14.90
2022-10-23T00:27:37.884Z,14.70
2022-10-23T00:30:05.805Z,14.40
2022-10-23T00:35:04.085Z,14.20
2022-10-23T00:37:30.564Z,14.20
2022-10-23T00:39:57.256Z,14.10
2022-10-23T00:42:24.079Z,14.10
2022-10-23T00:44:50.590Z,14.00
2022-10-23T00:47:17.634Z,14.20
2022-10-23T00:49:44.143Z,14.10
2022-10-23T00:52:12.313Z,14.30
2022-10-23T00:54:42.830Z,14.70
2022-10-23T00:57:13.170Z,14.40
2022-10-23T00:59:40.039Z,14.40
2022-10-23T01:02:06.985Z,14.90
2022-10-23T01:04:34.479Z,15.30
2022-10-23T01:07:34.270Z,15.40
2022-10-23T01:10:20.109Z,15.30
2022-10-23T01:12:52.027Z,15.40
2022-10-23T01:15:22.798Z,15.40
2022-10-23T01:18:02.449Z,15.70
2022-10-23T01:20:52.747Z,15.90
2022-10-23T01:23:41.236Z,16.00
2022-10-23T01:26:25.679Z,15.90
2022-10-23T01:29:07.389Z,15.30
2022-10-23T01:31:39.285Z,15.70
2022-10-23T01:34:10.769Z,15.50
2022-10-23T01:36:42.359Z,15.50
2022-10-23T01:39:13.551Z,15.70
2022-10-23T01:41:45.856Z,15.70
2022-10-23T01:44:20.080Z,15.80
2022-10-23T01:46:47.446Z,15.80
2022-10-23T01:49:15.083Z,15.60
2022-10-23T01:51:45.902Z,15.50
2022-10-23T01:54:14.863Z,15.80
2022-10-23T01:56:44.977Z,15.00
2022-10-23T01:59:16.423Z,14.50
2022-10-23T02:01:45.958Z,14.50
2022-10-23T02:04:15.218Z,14.80
2022-10-23T02:06:41.911Z,14.90
2022-10-23T02:09:08.463Z,14.70
2022-10-23T02:11:48.720Z,14.50
2022-10-23T02:14:28.228Z,14.90
2022-10-23T02:17:07.286Z,14.60
2022-10-23T02:19:45.633Z,14.60
2022-10-23T02:22:22.592Z,15.20
2022-10-23T02:25:11.859Z,15.30
2022-10-23T02:27:48.164Z,14.50
2022-10-23T02:30:17.753Z,14.50
2022-10-23T02:32:52.697Z,14.60
2022-10-23T02:35:23.421Z,14.90
2022-10-23T02:37:59.225Z,15.10
2022-10-23T02:40:36.327Z,14.70
2022-10-23T02:43:08.412Z,14.70
2022-10-23T02:48:24.068Z,14.70
2022-10-23T02:51:03.885Z,15.00
2022-10-23T02:53:38.920Z,14.80
2022-10-23T02:56:22.168Z,15.00
2022-10-23T02:58:58.128Z,15.40
2022-10-23T03:01:35.919Z,15.60
2022-10-23T03:04:05.459Z,15.50
2022-10-23T03:06:32.770Z,15.60
2022-10-23T03:09:03.784Z,15.60
2022-10-23T03:11:30.226Z,15.80
2022-10-23T03:13:56.832Z,15.60
2022-10-23T03:16:23.387Z,15.40
2022-10-23T03:18:53.248Z,15.20
2022-10-23T03:21:19.944Z,15.50
2022-10-23T03:23:49.765Z,15.20
2022-10-23T03:26:20.744Z,15.30
2022-10-23T03:28:48.077Z,15.30
2022-10-23T03:31:15.915Z,15.20
2022-10-23T03:33:44.534Z,15.40
2022-10-23T03:36:12.172Z,15.60
2022-10-23T03:38:39.903Z,15.60
2022-10-23T03:41:06.401Z,14.90
2022-10-23T03:43:32.901Z,15.00
2022-10-23T03:45:59.354Z,15.10
2022-10-23T03:48:26.178Z,15.20
2022-10-23T03:50:57.000Z,15.40
2022-10-23T03:53:23.513Z,15.40
2022-10-23T03:55:50.025Z,15.30
2022-10-23T03:58:17.390Z,15.40
2022-10-23T04:00:44.111Z,15.30
2022-10-23T04:03:10.647Z,15.30
2022-10-23T04:05:37.756Z,15.30
2022-10-23T04:08:04.394Z,15.20
2022-10-23T04:10:32.812Z,15.20
2022-10-23T04:12:59.410Z,15.00
2022-10-23T04:15:27.212Z,15.00
2022-10-23T04:17:54.485Z,14.90
2022-10-23T04:20:20.932Z,14.90
2022-10-23T04:22:47.455Z,15.00
2022-10-23T04:25:14.122Z,14.70
2022-10-23T04:27:40.755Z,14.60
2022-10-23T04:30:08.197Z,14.90
2022-10-23T04:32:34.783Z,14.90
2022-10-23T04:35:01.236Z,14.90
2022-10-23T04:37:30.092Z,14.80
2022-10-23T04:39:56.736Z,14.70
2022-10-23T04:42:23.402Z,14.70
2022-10-23T04:44:49.979Z,14.70
2022-10-23T04:47:16.490Z,14.60
2022-10-23T04:49:53.840Z,14.70
2022-10-23T04:52:34.876Z,14.40
2022-10-23T04:55:25.418Z,14.40
2022-10-23T04:58:06.390Z,14.60
2022-10-23T05:00:33.039Z,14.50
2022-10-23T05:02:59.565Z,14.40
2022-10-23T05:05:32.025Z,14.50
2022-10-23T05:08:17.969Z,14.50
2022-10-23T05:11:03.667Z,14.40
2022-10-23T05:13:35.357Z,14.40
2022-10-23T05:16:01.927Z,14.30
2022-10-23T05:18:29.954Z,14.20
2022-10-23T05:21:06.913Z,14.30
2022-10-23T05:23:34.274Z,14.40
2022-10-23T05:26:03.319Z,14.40
2022-10-23T05:28:31.155Z,14.30
2022-10-23T05:31:00.196Z,14.10
2022-10-23T05:33:29.937Z,14.00
2022-10-23T05:35:56.663Z,14.20
2022-10-23T05:38:23.729Z,14.10
2022-10-23T05:40:51.645Z,14.20
2022-10-23T05:43:19.588Z,14.00
2022-10-23T05:45:49.556Z,14.20
2022-10-23T05:48:35.342Z,14.20
2022-10-23T05:51:22.976Z,14.10
2022-10-23T05:53:55.798Z,14.20
2022-10-23T05:56:44.054Z,14.00
2022-10-23T05:59:23.424Z,14.20
2022-10-23T06:01:50.485Z,14.20
2022-10-23T06:04:39.531Z,14.10
2022-10-23T06:07:14.904Z,14.00
2022-10-23T06:09:44.136Z,14.00
2022-10-23T06:12:10.640Z,13.90
2022-10-23T06:14:38.507Z,13.90
2022-10-23T06:17:05.286Z,13.90
2022-10-23T06:19:37.432Z,14.00
2022-10-23T06:22:05.445Z,14.10
2022-10-23T06:24:45.349Z,13.90
2022-10-23T06:27:13.572Z,14.00
2022-10-23T06:29:44.556Z,14.10
2022-10-23T06:32:11.447Z,14.10
2022-10-23T06:34:39.538Z,14.10
2022-10-23T06:37:08.018Z,14.20
2022-10-23T06:39:47.517Z,14.00
2022-10-23T06:42:19.909Z,14.10
2022-10-23T06:45:12.270Z,14.20
2022-10-23T06:47:52.474Z,14.20
2022-10-23T06:50:19.105Z,14.20
2022-10-23T06:52:47.642Z,14.30
2022-10-23T06:55:17.344Z,14.40
2022-10-23T06:57:44.520Z,14.30
2022-10-23T07:00:12.384Z,13.80
2022-10-23T07:02:45.826Z,14.10
2022-10-23T07:05:13.901Z,14.20
2022-10-23T07:07:42.346Z,14.40
2022-10-23T07:10:10.221Z,14.60
2022-10-23T07:12:42.364Z,14.80
2022-10-23T07:15:27.925Z,14.80
2022-10-23T07:17:54.774Z,14.80
2022-10-23T07:20:24.853Z,14.90
2022-10-23T07:22:52.986Z,15.10
2022-10-23T07:25:26.804Z,15.10
2022-10-23T07:27:55.736Z,14.30
2022-10-23T07:30:24.440Z,14.30
2022-10-23T07:32:54.129Z,14.30
2022-10-23T07:35:40.797Z,13.90
2022-10-23T07:38:14.157Z,13.60
2022-10-23T07:40:45.284Z,13.70
2022-10-23T07:43:14.913Z,14.20
2022-10-23T07:45:41.463Z,14.40
2022-10-23T07:48:29.485Z,14.10
2022-10-23T07:51:03.921Z,14.60
2022-10-23T07:53:31.168Z,14.30
2022-10-23T07:56:15.621Z,15.20
2022-10-23T07:59:12.830Z,15.70
2022-10-23T08:01:41.949Z,16.00
2022-10-23T08:04:09.813Z,15.70
2022-10-23T08:06:43.436Z,16.10
2022-10-23T08:09:10.624Z,16.80
2022-10-23T08:11:40.208Z,16.40
2022-10-23T08:14:08.403Z,15.90
2022-10-23T08:16:37.280Z,15.90
2022-10-23T08:19:05.201Z,15.80
2022-10-23T08:21:35.507Z,15.90
2022-10-23T08:24:03.296Z,16.00
2022-10-23T08:26:30.730Z,16.40
2022-10-23T08:29:00.335Z,17.10
2022-10-23T08:31:27.974Z,16.70
2022-10-23T08:34:21.424Z,16.20
2022-10-23T08:36:50.020Z,16.30
2022-10-23T08:39:17.620Z,16.10
2022-10-23T08:42:02.581Z,16.60
2022-10-23T08:44:33.106Z,17.20
2022-10-23T08:47:04.188Z,16.80
2022-10-23T08:49:52.057Z,16.70
2022-10-23T08:52:30.228Z,16.90
2022-10-23T08:55:12.378Z,17.50
2022-10-23T08:57:45.609Z,18.40
2022-10-23T09:00:14.660Z,18.20
2022-10-23T09:02:50.955Z,17.90
2022-10-23T09:05:27.678Z,17.40
2022-10-23T09:08:23.441Z,18.00
2022-10-23T09:11:12.632Z,18.40
2022-10-23T09:13:58.251Z,18.40
2022-10-23T09:16:35.273Z,18.00
2022-10-23T09:19:02.240Z,17.80
2022-10-23T09:21:29.624Z,17.80
2022-10-23T09:23:56.571Z,17.10
2022-10-23T09:26:23.487Z,17.10
2022-10-23T09:28:57.210Z,17.10
2022-10-23T09:31:23.830Z,17.10
2022-10-23T09:33:58.867Z,17.50
2022-10-23T09:36:28.984Z,17.50
2022-10-23T09:38:58.837Z,17.90
2022-10-23T09:41:30.534Z,19.10
2022-10-23T09:44:09.230Z,19.90
2022-10-23T09:46:53.691Z,20.60
2022-10-23T09:49:26.099Z,20.40
2022-10-23T09:52:34.180Z,20.60
2022-10-23T09:55:02.968Z,20.90
2022-10-23T09:57:34.024Z,21.90
2022-10-23T10:00:15.222Z,21.90
2022-10-23T10:02:44.259Z,22.20
2022-10-23T10:05:41.122Z,22.50
2022-10-23T10:08:48.989Z,22.50
2022-10-23T10:11:24.638Z,22.30
2022-10-23T10:14:06.801Z,22.70
2022-10-23T10:16:43.040Z,20.80
2022-10-23T10:19:23.091Z,20.90
2022-10-23T10:22:09.548Z,20.60
2022-10-23T10:24:50.583Z,21.60
2022-10-23T10:27:32.386Z,20.90
2022-10-23T10:30:13.284Z,21.20
2022-10-23T10:32:59.075Z,20.60
2022-10-23T10:35:38.293Z,21.00
2022-10-23T10:38:11.268Z,20.50
2022-10-23T10:41:15.344Z,19.90
2022-10-23T10:44:11.257Z,20.10
2022-10-23T10:46:51.069Z,20.30
2022-10-23T10:49:31.225Z,20.70
2022-10-23T10:52:33.126Z,20.20
2022-10-23T10:55:18.226Z,20.20
2022-10-23T10:57:52.038Z,20.30
2022-10-23T11:00:20.859Z,20.50
2022-10-23T11:02:50.201Z,20.90
2022-10-23T11:05:34.839Z,21.00
2022-10-23T11:08:10.921Z,20.60
2022-10-23T11:10:41.552Z,21.50
2022-10-23T11:13:29.166Z,21.90
2022-10-23T11:15:59.164Z,21.00
2022-10-23T11:18:28.529Z,21.10
2022-10-23T11:21:28.319Z,21.10
2022-10-23T11:24:13.927Z,21.70
2022-10-23T11:27:09.656Z,22.30
2022-10-23T11:29:44.171Z,22.60
2022-10-23T11:32:25.892Z,21.90
2022-10-23T11:34:55.387Z,22.00
2022-10-23T11:37:22.541Z,22.00
2022-10-23T11:39:57.926Z,22.30
2022-10-23T11:42:31.886Z,21.70
2022-10-23T11:44:58.452Z,22.20
2022-10-23T11:47:38.990Z,21.50
2022-10-23T11:50:09.491Z,21.70
2022-10-23T11:52:45.614Z,21.20
2022-10-23T11:55:20.732Z,21.10
2022-10-23T11:58:23.786Z,21.80
2022-10-23T12:01:01.600Z,22.20
2022-10-23T12:03:40.842Z,22.80
2022-10-23T12:06:07.914Z,23.40
2022-10-23T12:08:38.507Z,23.50
2022-10-23T12:11:05.302Z,23.30
2022-10-23T12:13:38.012Z,22.50
2022-10-23T12:16:07.531Z,23.10
2022-10-23T12:18:45.357Z,23.30
2022-10-23T12:21:28.497Z,23.90
2022-10-23T12:24:23.484Z,23.30
2022-10-23T12:27:15.712Z,22.60
2022-10-23T12:29:51.624Z,22.20
2022-10-23T12:32:33.274Z,21.80
2022-10-23T12:35:35.015Z,21.90
2022-10-23T12:38:16.562Z,21.50
2022-10-23T12:40:51.963Z,21.40
2022-10-23T12:43:22.713Z,21.40
2022-10-23T12:45:49.298Z,21.30
2022-10-23T12:48:25.062Z,20.90
2022-10-23T12:50:55.967Z,21.00
2022-10-23T12:53:23.382Z,21.00
2022-10-23T12:58:33.380Z,20.00
2022-10-23T13:01:05.738Z,20.20
2022-10-23T13:03:33.877Z,20.40
2022-10-23T13:06:04.402Z,20.10
2022-10-23T13:08:39.222Z,20.20
2022-10-23T13:11:24.833Z,20.00
2022-10-23T13:13:53.255Z,20.30
2022-10-23T13:16:22.703Z,20.10
2022-10-23T13:18:49.439Z,20.00
2022-10-23T13:21:21.823Z,20.00
2022-10-23T13:23:49.217Z,19.30
2022-10-23T13:26:30.787Z,19.30
2022-10-23T13:28:57.798Z,19.30
2022-10-23T13:31:33.305Z,19.50
2022-10-23T13:33:59.692Z,19.80
2022-10-23T13:36:28.641Z,19.70
2022-10-23T13:39:10.082Z,20.10
2022-10-23T13:41:40.974Z,20.70
2022-10-23T13:44:10.358Z,21.20
2022-10-23T13:46:36.945Z,21.60
2022-10-23T13:49:03.568Z,21.90
2022-10-23T13:51:32.439Z,21.50
2022-10-23T13:53:59.009Z,21.80
2022-10-23T13:56:27.323Z,21.90
2022-10-23T13:58:54.220Z,21.40
2022-10-23T14:01:26.951Z,21.20
2022-10-23T14:03:54.706Z,20.60
2022-10-23T14:06:21.306Z,20.90
2022-10-23T14:08:48.005Z,21.30
2022-10-23T14:11:15.994Z,21.40
2022-10-23T14:13:42.614Z,21.40
2022-10-23T14:16:10.188Z,21.70
2022-10-23T14:18:36.671Z,22.00
2022-10-23T14:21:05.115Z,21.30
2022-10-23T14:23:31.840Z,20.70
2022-10-23T14:26:02.755Z,21.20
2022-10-23T14:28:29.207Z,21.30
2022-10-23T14:30:55.692Z,21.10
2022-10-23T14:33:22.198Z,21.20
2022-10-23T14:35:51.800Z,20.90
2022-10-23T14:38:18.338Z,20.60
2022-10-23T14:40:44.897Z,20.60
2022-10-23T14:43:11.372Z,20.90
2022-10-23T14:45:38.008Z,21.30
2022-10-23T14:48:04.717Z,21.00
2022-10-23T14:50:32.175Z,21.20
2022-10-23T14:52:58.614Z,21.30
2022-10-23T14:55:25.286Z,21.10
2022-10-23T14:57:55.561Z,20.90
2022-10-23T15:00:23.315Z,20.80
2022-10-23T15:02:49.776Z,21.00
2022-10-23T15:05:16.342Z,21.00
2022-10-23T15:07:42.844Z,21.20
2022-10-23T15:10:09.899Z,21.10
2022-10-23T15:12:37.471Z,20.90
2022-10-23T15:15:05.475Z,20.80
2022-10-23T15:17:33.946Z,20.90
2022-10-23T15:20:00.911Z,20.90
2022-10-23T15:22:27.664Z,20.90
2022-10-23T15:24:55.047Z,20.60
2022-10-23T15:27:21.556Z,20.80
2022-10-23T15:29:48.073Z,20.90
2022-10-23T15:32:16.063Z,20.90
2022-10-23T15:34:42.801Z,21.00
2022-10-23T15:37:10.043Z,20.80
2022-10-23T15:39:36.589Z,20.60
2022-10-23T15:42:05.274Z,20.50
2022-10-23T15:44:33.575Z,20.40
2022-10-23T15:47:00.301Z,20.50
2022-10-23T15:49:29.467Z,20.40
2022-10-23T15:51:56.294Z,20.50
2022-10-23T15:54:23.073Z,20.40
2022-10-23T15:56:51.606Z,20.30
2022-10-23T15:59:20.149Z,20.20
2022-10-23T16:01:46.889Z,20.20
2022-10-23T16:04:13.579Z,20.30
2022-10-23T16:06:40.285Z,20.00
2022-10-23T16:09:06.739Z,19.80
2022-10-23T16:11:35.457Z,20.00
2022-10-23T16:14:03.554Z,20.10
2022-10-23T16:16:30.922Z,19.70
2022-10-23T16:19:01.194Z,19.90
2022-10-23T16:21:30.312Z,19.90
2022-10-23T16:23:58.963Z,19.90
2022-10-23T16:26:26.135Z,19.80
2022-10-23T16:28:57.104Z,19.80
2022-10-23T16:31:24.578Z,19.70
2022-10-23T16:33:51.733Z,19.60
2022-10-23T16:36:18.965Z,19.50
2022-10-23T16:39:15.903Z,19.30
2022-10-23T16:42:01.000Z,19.40
2022-10-23T16:44:38.743Z,19.20
2022-10-23T16:47:06.070Z,19.20
2022-10-23T16:49:32.672Z,19.30
2022-10-23T16:51:59.196Z,19.10
2022-10-23T16:54:25.778Z,19.20
2022-10-23T16:56:52.291Z,19.00
2022-10-23T16:59:18.763Z,19.10
2022-10-23T17:01:45.377Z,19.00
2022-10-23T17:04:12.105Z,19.00
2022-10-23T17:06:38.770Z,18.70
2022-10-23T17:09:11.159Z,18.70
2022-10-23T17:11:44.107Z,18.60
2022-10-23T17:14:17.342Z,18.70
2022-10-23T17:16:49.693Z,18.70
2022-10-23T17:19:44.753Z,18.90
2022-10-23T17:22:10.602Z,18.60
2022-10-23T17:24:39.027Z,18.80
2022-10-23T17:27:06.024Z,18.90
2022-10-23T17:29:32.622Z,18.70
2022-10-23T17:31:59.496Z,18.60
2022-10-23T17:34:26.241Z,18.70
2022-10-23T17:36:54.519Z,18.80
2022-10-23T17:39:23.853Z,19.00
2022-10-23T17:41:50.631Z,18.90
2022-10-23T17:44:17.615Z,18.50
2022-10-23T17:46:44.091Z,18.60
2022-10-23T17:49:16.341Z,18.50
2022-10-23T17:51:47.302Z,18.50
2022-10-23T17:54:14.529Z,18.60
2022-10-23T17:56:41.344Z,18.30
2022-10-23T17:59:11.386Z,18.50
2022-10-23T18:01:38.711Z,18.40
2022-10-23T18:04:09.345Z,18.70
2022-10-23T18:06:41.485Z,18.50
2022-10-23T18:09:08.039Z,18.40
2022-10-23T18:11:37.434Z,18.40
2022-10-23T18:14:05.014Z,18.60
2022-10-23T18:16:31.756Z,18.70
2022-10-23T18:19:02.011Z,18.40
2022-10-23T18:21:28.850Z,18.50
2022-10-23T18:23:55.714Z,18.30
2022-10-23T18:26:24.962Z,18.30
2022-10-23T18:28:53.554Z,18.40
2022-10-23T18:31:20.678Z,18.10
2022-10-23T18:33:47.468Z,18.20
2022-10-23T18:36:19.678Z,17.90
2022-10-23T18:38:46.581Z,17.80
2022-10-23T18:41:13.100Z,17.60
2022-10-23T18:43:43.677Z,17.20
2022-10-23T18:46:14.995Z,17.10
2022-10-23T18:48:43.355Z,17.30
2022-10-23T18:51:18.403Z,17.30
2022-10-23T18:53:48.214Z,17.40
2022-10-23T18:56:15.836Z,17.50
2022-10-23T18:58:42.297Z,17.70
2022-10-23T19:01:08.923Z,17.90
2022-10-23T19:03:35.487Z,17.80
2022-10-23T19:06:02.045Z,17.80
2022-10-23T19:08:28.903Z,17.90
2022-10-23T19:10:57.344Z,17.80
2022-10-23T19:13:23.814Z,17.90
2022-10-23T19:15:50.287Z,17.80
2022-10-23T19:18:16.854Z,17.80
2022-10-23T19:20:43.473Z,17.80
2022-10-23T19:23:12.795Z,17.50
2022-10-23T19:25:45.188Z,17.60
2022-10-23T19:28:11.622Z,17.50
2022-10-23T19:30:38.065Z,17.30
2022-10-23T19:33:04.752Z,16.70
2022-10-23T19:35:31.259Z,17.20
2022-10-23T19:37:57.718Z,17.40
2022-10-23T19:40:24.772Z,17.30
2022-10-23T19:42:51.236Z,17.50
2022-10-23T19:45:17.913Z,17.50
2022-10-23T19:47:46.143Z,17.60
2022-10-23T19:50:12.903Z,17.60
2022-10-23T19:52:39.714Z,17.80
2022-10-23T19:55:07.698Z,17.70
2022-10-23T19:57:34.761Z,17.30
2022-10-23T20:00:02.060Z,16.90
2022-10-23T20:05:08.645Z,15.60
2022-10-23T20:07:37.019Z,15.80
2022-10-23T20:10:07.141Z,16.40
2022-10-23T20:12:34.726Z,16.50
2022-10-23T20:15:01.209Z,16.20
2022-10-23T20:17:27.705Z,15.90
2022-10-23T20:19:54.276Z,16.40
2022-10-23T20:22:20.831Z,16.30
2022-10-23T20:24:47.360Z,16.30
2022-10-23T20:27:14.628Z,16.30
2022-10-23T20:29:42.205Z,16.50
2022-10-23T20:32:08.870Z,16.70
2022-10-23T20:34:35.450Z,17.00
2022-10-23T20:37:01.996Z,16.70
2022-10-23T20:39:29.739Z,16.70
2022-10-23T20:41:56.639Z,16.60
2022-10-23T20:44:23.885Z,16.70
2022-10-23T20:46:50.898Z,16.50
2022-10-23T20:49:17.774Z,16.50
2022-10-23T20:51:44.269Z,16.60
2022-10-23T20:54:10.775Z,16.60
2022-10-23T20:56:38.822Z,16.40
2022-10-23T20:59:12.748Z,16.20
2022-10-23T21:01:45.483Z,15.90
2022-10-23T21:04:13.075Z,16.10
2022-10-23T21:06:51.950Z,15.70
2022-10-23T21:09:29.468Z,16.30
2022-10-23T21:11:56.175Z,16.20
2022-10-23T21:14:22.614Z,16.10
2022-10-23T21:16:49.114Z,16.20
2022-10-23T21:19:16.106Z,16.40
2022-10-23T21:21:43.458Z,16.10
2022-10-23T21:24:13.966Z,16.20
2022-10-23T21:26:40.460Z,16.40
2022-10-23T21:29:18.891Z,16.20
2022-10-23T21:31:51.916Z,15.60
2022-10-23T21:34:18.395Z,15.50
2022-10-23T21:37:10.839Z,15.10
2022-10-23T21:39:32.997Z,15.30
2022-10-23T21:41:59.440Z,15.00
2022-10-23T21:44:25.961Z,14.70
2022-10-23T21:46:52.512Z,14.70
2022-10-23T21:49:18.969Z,14.30
2022-10-23T21:51:45.567Z,14.50
2022-10-23T21:54:14.767Z,14.70
2022-10-23T21:56:45.413Z,14.70
2022-10-23T21:59:14.296Z,14.80
2022-10-23T22:01:43.260Z,14.80
2022-10-23T22:04:14.200Z,14.80
2022-10-23T22:06:42.063Z,15.00
2022-10-23T22:09:09.559Z,14.90
2022-10-23T22:11:36.099Z,14.80
2022-10-23T22:14:03.223Z,14.90
2022-10-23T22:16:29.767Z,14.90
2022-10-23T22:18:56.375Z,15.30
2022-10-23T22:21:24.850Z,15.10
2022-10-23T22:23:53.775Z,15.10
2022-10-23T22:26:24.415Z,15.00
2022-10-23T22:28:57.437Z,15.10
2022-10-23T22:31:26.077Z,14.90
2022-10-23T22:33:53.492Z,14.90
2022-10-23T22:36:20.176Z,14.80
2022-10-23T22:38:46.710Z,15.00
2022-10-23T22:41:13.349Z,14.80
2022-10-23T22:43:40.066Z,14.90
2022-10-23T22:46:14.814Z,14.70
2022-10-23T22:48:41.551Z,14.60
2022-10-23T22:51:09.275Z,14.60
2022-10-23T22:53:35.972Z,14.70
2022-10-23T22:56:06.140Z,14.70
2022-10-23T22:58:32.616Z,14.70
2022-10-23T23:01:30.575Z,14.60
2022-10-23T23:04:04.415Z,14.60
2022-10-23T23:06:47.242Z,14.60
2022-10-23T23:09:17.842Z,14.60
2022-10-23T23:11:51.438Z,14.40
2022-10-23T23:14:22.025Z,14.40
2022-10-23T23:16:50.457Z,14.20
2022-10-23T23:19:16.931Z,14.10
2022-10-23T23:21:43.388Z,14.20
2022-10-23T23:24:11.104Z,14.10
2022-10-23T23:26:37.564Z,14.10
2022-10-23T23:29:04.010Z,14.20
2022-10-23T23:31:30.450Z,14.30
2022-10-23T23:33:56.909Z,14.00
2022-10-23T23:36:26.138Z,14.10
2022-10-23T23:38:53.325Z,14.50
2022-10-23T23:41:20.481Z,14.40
2022-10-23T23:43:47.102Z,14.50
2022-10-23T23:46:16.827Z,14.50
2022-10-23T23:48:47.671Z,14.60
2022-10-23T23:51:32.292Z,14.50
2022-10-23T23:53:58.716Z,14.50
2022-10-23T23:56:25.349Z,14.70
2022-10-23T23:58:51.783Z,14.90
